Time;durP1;ratioP1;P1;durP2;ratioP2;P2;SDS_P1;SDS_P2;PMS_P1;PMS_P2;Temp;Humidity;BMP_temperature;BMP_pressure;BME280_temperature;BME280_humidity;BME280_pressure;Samples;Min_cycle;Max_cycle;Signal;HPM_P1;HPM_P2
2021/10/27 00:00:39;;;;;;;15.63;10.10;;;;;;;;;;6067094;29;20236;-50
2021/10/27 00:04:02;;;;;;;12.50;9.33;;;;;;;;;;6070088;29;20210;-49
2021/10/27 00:07:23;;;;;;;10.07;9.07;;;;;;;;;;6070230;29;20237;-54
2021/10/27 00:10:44;;;;;;;10.33;9.30;;;;;;;;;;6074814;29;20631;-49
2021/10/27 00:14:04;;;;;;;16.07;10.10;;;;;;;;;;6073623;29;20938;-48
2021/10/27 00:17:25;;;;;;;15.87;10.03;;;;;;;;;;6061620;29;20764;-49
2021/10/27 00:20:47;;;;;;;15.93;10.07;;;;;;;;;;6073342;29;20233;-54
2021/10/27 00:24:08;;;;;;;11.67;10.43;;;;;;;;;;6077796;29;20217;-51
2021/10/27 00:27:28;;;;;;;15.63;11.80;;;;;;;;;;6074970;29;20230;-50
2021/10/27 00:30:49;;;;;;;12.77;10.77;;;;;;;;;;6072988;29;20229;-52
2021/10/27 00:34:09;;;;;;;14.77;11.47;;;;;;;;;;6076283;29;20808;-52
2021/10/27 00:37:31;;;;;;;17.77;12.23;;;;;;;;;;6075759;29;20275;-53
2021/10/27 00:40:52;;;;;;;16.00;13.47;;;;;;;;;;6057821;29;20226;-52
2021/10/27 00:44:20;;;;;;;13.70;12.20;;;;;;;;;;6076438;29;20218;-49
2021/10/27 00:47:40;;;;;;;17.37;11.83;;;;;;;;;;6073372;29;20277;-53
2021/10/27 00:51:01;;;;;;;13.80;12.17;;;;;;;;;;6072123;29;20612;-52
2021/10/27 00:54:23;;;;;;;17.13;12.70;;;;;;;;;;6067197;29;20213;-51
2021/10/27 00:57:44;;;;;;;14.77;11.60;;;;;;;;;;6075484;29;20210;-54
2021/10/27 01:01:05;;;;;;;15.17;13.20;;;;;;;;;;6077442;29;20237;-53
2021/10/27 01:04:26;;;;;;;13.53;12.10;;;;;;;;;;6067720;29;20194;-53
2021/10/27 01:07:47;;;;;;;16.07;12.60;;;;;;;;;;6069549;29;20213;-54
2021/10/27 01:11:09;;;;;;;17.87;14.57;;;;;;;;;;6078381;29;20651;-55
2021/10/27 01:14:33;;;;;;;14.40;12.57;;;;;;;;;;6077482;29;20312;-54
2021/10/27 01:17:54;;;;;;;21.67;13.00;;;;;;;;;;6080177;29;20221;-52
2021/10/27 01:21:21;;;;;;;14.80;11.23;;;;;;;;;;6074945;29;20332;-52
2021/10/27 01:24:41;;;;;;;17.20;12.53;;;;;;;;;;6080218;29;20232;-53
2021/10/27 01:28:02;;;;;;;12.80;11.03;;;;;;;;;;6069356;29;20205;-51
2021/10/27 01:31:23;;;;;;;14.50;13.10;;;;;;;;;;6073547;29;20657;-52
2021/10/27 01:34:43;;;;;;;17.67;12.13;;;;;;;;;;6074894;29;20261;-51
2021/10/27 01:38:05;;;;;;;18.20;13.03;;;;;;;;;;6071040;29;20209;-49
2021/10/27 01:41:27;;;;;;;15.33;12.97;;;;;;;;;;6078564;29;20239;-52
2021/10/27 01:44:48;;;;;;;15.83;12.87;;;;;;;;;;6073608;29;20233;-52
2021/10/27 01:48:09;;;;;;;15.53;13.37;;;;;;;;;;6072174;29;20237;-52
2021/10/27 01:51:31;;;;;;;14.50;13.00;;;;;;;;;;6069625;29;20229;-52
2021/10/27 01:54:53;;;;;;;17.03;13.23;;;;;;;;;;6074404;29;20233;-52
2021/10/27 01:58:13;;;;;;;16.10;13.73;;;;;;;;;;6067265;29;20202;-52
2021/10/27 02:01:34;;;;;;;15.23;13.57;;;;;;;;;;6071390;29;20265;-51
2021/10/27 02:04:54;;;;;;;16.50;14.70;;;;;;;;;;6072032;29;20710;-52
2021/10/27 02:08:15;;;;;;;18.53;13.57;;;;;;;;;;6068423;29;20206;-51
2021/10/27 02:11:37;;;;;;;19.00;13.97;;;;;;;;;;6070872;29;20323;-50
2021/10/27 02:14:57;;;;;;;19.60;14.67;;;;;;;;;;6073130;29;20260;-47
2021/10/27 02:18:18;;;;;;;18.37;14.53;;;;;;;;;;6073571;29;20197;-53
2021/10/27 02:21:39;;;;;;;16.30;14.57;;;;;;;;;;6072000;29;20229;-50
2021/10/27 02:24:59;;;;;;;16.80;14.23;;;;;;;;;;6074743;29;20225;-53
2021/10/27 02:28:21;;;;;;;18.47;16.40;;;;;;;;;;6074131;29;20217;-56
2021/10/27 02:31:42;;;;;;;16.67;14.90;;;;;;;;;;6072842;29;20570;-50
2021/10/27 02:35:02;;;;;;;18.13;14.57;;;;;;;;;;6070170;29;20237;-50
2021/10/27 02:38:23;;;;;;;16.73;14.13;;;;;;;;;;6071141;29;20260;-53
2021/10/27 02:41:44;;;;;;;19.07;14.87;;;;;;;;;;6069068;29;20278;-55
2021/10/27 02:45:07;;;;;;;17.87;14.97;;;;;;;;;;6071355;29;20623;-54
2021/10/27 02:48:27;;;;;;;22.10;16.10;;;;;;;;;;6068314;29;20312;-54
2021/10/27 02:51:48;;;;;;;18.13;15.10;;;;;;;;;;6071124;29;20229;-53
2021/10/27 02:55:09;;;;;;;16.40;14.53;;;;;;;;;;6071435;29;20237;-51
2021/10/27 02:58:29;;;;;;;16.07;14.53;;;;;;;;;;6078425;29;20206;-54
2021/10/27 03:01:51;;;;;;;16.53;14.83;;;;;;;;;;6073955;29;20233;-53
2021/10/27 03:05:12;;;;;;;16.40;14.70;;;;;;;;;;6081514;29;20252;-52
2021/10/27 03:08:32;;;;;;;19.90;15.70;;;;;;;;;;6073606;29;20198;-52
2021/10/27 03:11:53;;;;;;;16.33;14.63;;;;;;;;;;6074698;29;20232;-51
2021/10/27 03:15:14;;;;;;;18.00;15.40;;;;;;;;;;6074861;29;20514;-53
2021/10/27 03:18:35;;;;;;;18.87;16.67;;;;;;;;;;6072642;29;20205;-52
2021/10/27 03:21:56;;;;;;;21.53;17.33;;;;;;;;;;6074662;29;20229;-50
2021/10/27 03:25:16;;;;;;;19.77;17.43;;;;;;;;;;6078567;29;20237;-49
2021/10/27 03:28:37;;;;;;;18.73;14.97;;;;;;;;;;6062650;29;20203;-53
2021/10/27 03:31:57;;;;;;;18.47;15.37;;;;;;;;;;6075820;29;20229;-53
2021/10/27 03:35:19;;;;;;;18.90;15.80;;;;;;;;;;6073362;29;20741;-52
2021/10/27 03:38:40;;;;;;;17.67;15.93;;;;;;;;;;6075153;29;20214;-49
2021/10/27 03:42:01;;;;;;;19.00;17.00;;;;;;;;;;6070435;29;20662;-55
2021/10/27 03:45:21;;;;;;;16.83;14.57;;;;;;;;;;6079890;29;20233;-51
2021/10/27 03:48:42;;;;;;;19.00;16.23;;;;;;;;;;6072294;29;20365;-54
2021/10/27 03:52:04;;;;;;;22.13;15.80;;;;;;;;;;6074366;29;20230;-49
2021/10/27 03:55:25;;;;;;;18.47;16.57;;;;;;;;;;6073663;29;20272;-48
2021/10/27 03:58:46;;;;;;;20.27;16.47;;;;;;;;;;6075651;29;20294;-50
2021/10/27 04:02:06;;;;;;;21.07;17.37;;;;;;;;;;6072050;29;20610;-48
2021/10/27 04:05:27;;;;;;;19.57;16.67;;;;;;;;;;6072497;29;20222;-50
2021/10/27 04:08:49;;;;;;;21.00;16.67;;;;;;;;;;6076487;29;20202;-49
2021/10/27 04:12:10;;;;;;;24.30;19.30;;;;;;;;;;6079410;29;20245;-52
2021/10/27 04:15:31;;;;;;;19.47;17.57;;;;;;;;;;6075515;29;20658;-52
2021/10/27 04:18:51;;;;;;;19.40;17.43;;;;;;;;;;6075067;29;20201;-52
2021/10/27 04:22:12;;;;;;;20.77;18.60;;;;;;;;;;6077608;29;20268;-52
2021/10/27 04:25:34;;;;;;;21.50;19.37;;;;;;;;;;6083073;29;20229;-52
2021/10/27 04:28:54;;;;;;;23.70;21.17;;;;;;;;;;6071004;29;20205;-50
2021/10/27 04:32:15;;;;;;;21.60;18.90;;;;;;;;;;6073475;29;20665;-53
2021/10/27 04:35:36;;;;;;;22.30;19.23;;;;;;;;;;6067568;29;20230;-53
2021/10/27 04:38:56;;;;;;;20.77;18.87;;;;;;;;;;6073484;29;20193;-50
2021/10/27 04:42:18;;;;;;;22.43;20.13;;;;;;;;;;6070392;29;20233;-55
2021/10/27 04:45:39;;;;;;;21.00;18.70;;;;;;;;;;6078037;29;20233;-53
2021/10/27 04:48:59;;;;;;;20.23;18.30;;;;;;;;;;6077308;29;20240;-54
2021/10/27 04:52:20;;;;;;;21.60;19.27;;;;;;;;;;6060172;29;20233;-51
2021/10/27 04:55:41;;;;;;;24.43;19.47;;;;;;;;;;6074811;29;20262;-50
2021/10/27 04:59:03;;;;;;;22.70;19.23;;;;;;;;;;6073209;29;20580;-54
2021/10/27 05:02:24;;;;;;;22.40;18.00;;;;;;;;;;6066833;29;20237;-51
2021/10/27 05:05:48;;;;;;;20.27;18.17;;;;;;;;;;6071073;29;20308;-54
2021/10/27 05:09:09;;;;;;;22.60;19.50;;;;;;;;;;6075114;29;20321;-52
2021/10/27 05:12:29;;;;;;;20.67;18.50;;;;;;;;;;6068748;29;20521;-49
2021/10/27 05:15:51;;;;;;;20.67;17.50;;;;;;;;;;6075406;29;20519;-53
2021/10/27 05:19:12;;;;;;;19.80;17.80;;;;;;;;;;6072225;29;20540;-52
2021/10/27 05:22:33;;;;;;;25.63;19.47;;;;;;;;;;6064742;29;20217;-53
2021/10/27 05:25:53;;;;;;;19.67;17.67;;;;;;;;;;6075144;29;20242;-50
2021/10/27 05:29:13;;;;;;;25.70;18.97;;;;;;;;;;6066516;29;20190;-53
2021/10/27 05:32:36;;;;;;;21.63;17.93;;;;;;;;;;6066211;29;20226;-49
2021/10/27 05:35:56;;;;;;;22.50;18.57;;;;;;;;;;6062872;29;20642;-55
2021/10/27 05:39:17;;;;;;;21.67;18.77;;;;;;;;;;6056655;29;20201;-54
2021/10/27 05:42:40;;;;;;;22.27;18.60;;;;;;;;;;6050412;29;20238;-52
2021/10/27 05:46:01;;;;;;;22.67;17.93;;;;;;;;;;6054400;29;20229;-57
2021/10/27 05:49:26;;;;;;;21.93;19.57;;;;;;;;;;6057192;29;20226;-58
2021/10/27 05:56:36;;;;;;;19.13;16.87;;;;;;;;;;6009984;29;20618;-56
2021/10/27 05:59:56;;;;;;;20.00;17.20;;;;;;;;;;6061915;29;20237;-53
2021/10/27 06:03:17;;;;;;;19.70;17.50;;;;;;;;;;6055586;29;20309;-53
2021/10/27 06:06:39;;;;;;;23.70;17.87;;;;;;;;;;6055483;29;20635;-54
2021/10/27 06:09:59;;;;;;;18.53;15.57;;;;;;;;;;6071558;29;20922;-56
2021/10/27 06:13:20;;;;;;;19.60;16.40;;;;;;;;;;6068313;29;20210;-53
2021/10/27 06:16:41;;;;;;;20.10;14.97;;;;;;;;;;6053062;29;20233;-55
2021/10/27 06:20:02;;;;;;;17.43;15.63;;;;;;;;;;6064198;29;20234;-56
2021/10/27 06:23:24;;;;;;;22.10;18.27;;;;;;;;;;6066763;29;20238;-53
2021/10/27 06:26:44;;;;;;;21.23;16.20;;;;;;;;;;6069723;29;20241;-56
2021/10/27 06:30:09;;;;;;;20.33;16.93;;;;;;;;;;6064325;29;20415;-55
2021/10/27 06:33:47;;;;;;;61.80;25.50;;;;;;;;;;6072791;29;20213;-56
2021/10/27 06:37:21;;;;;;;35.40;19.77;;;;;;;;;;6065368;29;20287;-53
2021/10/27 06:47:59;;;;;;;20.30;15.57;;;;;;;;;;6053813;29;20189;-53
2021/10/27 06:51:20;;;;;;;17.10;15.33;;;;;;;;;;6053168;29;20331;-54
2021/10/27 06:54:40;;;;;;;18.70;17.03;;;;;;;;;;6046744;29;20245;-53
2021/10/27 06:58:02;;;;;;;19.17;17.20;;;;;;;;;;6048436;29;20197;-53
2021/10/27 07:01:26;;;;;;;16.57;14.87;;;;;;;;;;6040077;29;20655;-54
2021/10/27 07:05:01;;;;;;;18.10;16.20;;;;;;;;;;6051161;29;20249;-55
2021/10/27 07:15:40;;;;;;;18.40;15.67;;;;;;;;;;6032898;29;20741;-52
2021/10/27 07:19:01;;;;;;;17.47;15.67;;;;;;;;;;6067855;29;20257;-55
2021/10/27 07:22:21;;;;;;;17.23;15.43;;;;;;;;;;6054889;29;20229;-55
2021/10/27 07:25:43;;;;;;;18.83;17.07;;;;;;;;;;6061492;29;20244;-54
2021/10/27 07:29:04;;;;;;;19.33;17.33;;;;;;;;;;6063165;29;20236;-53
2021/10/27 07:32:27;;;;;;;18.67;16.90;;;;;;;;;;6064110;29;20301;-55
2021/10/27 07:35:51;;;;;;;19.40;17.10;;;;;;;;;;6069572;29;20238;-52
2021/10/27 07:42:53;;;;;;;19.43;17.50;;;;;;;;;;6074489;29;20271;-55
2021/10/27 07:46:13;;;;;;;23.00;19.70;;;;;;;;;;6075252;29;20526;-53
2021/10/27 07:49:35;;;;;;;20.20;18.23;;;;;;;;;;6066288;29;20225;-53
2021/10/27 07:52:57;;;;;;;21.20;18.93;;;;;;;;;;6076608;29;20436;-52
2021/10/27 07:56:18;;;;;;;20.83;18.60;;;;;;;;;;6076687;29;20828;-53
2021/10/27 07:59:38;;;;;;;19.00;17.10;;;;;;;;;;6078850;29;20237;-53
2021/10/27 08:03:02;;;;;;;19.47;17.57;;;;;;;;;;6078681;29;20225;-54
2021/10/27 08:06:23;;;;;;;19.33;16.63;;;;;;;;;;6064989;29;20229;-56
2021/10/27 08:09:44;;;;;;;20.70;17.37;;;;;;;;;;6073801;29;20245;-56
2021/10/27 08:13:09;;;;;;;23.93;18.63;;;;;;;;;;6080723;29;20712;-55
2021/10/27 08:16:29;;;;;;;21.50;17.40;;;;;;;;;;6054688;29;20224;-50
2021/10/27 08:19:52;;;;;;;20.13;17.37;;;;;;;;;;6081685;29;20231;-51
2021/10/27 08:23:14;;;;;;;18.13;16.30;;;;;;;;;;6062937;29;20220;-57
2021/10/27 08:26:35;;;;;;;20.67;18.53;;;;;;;;;;6068060;29;20241;-56
2021/10/27 08:29:57;;;;;;;18.47;16.67;;;;;;;;;;6073656;29;20760;-56
2021/10/27 08:33:25;;;;;;;19.27;17.27;;;;;;;;;;6067619;29;20218;-55
2021/10/27 08:36:45;;;;;;;17.10;15.57;;;;;;;;;;6068223;29;20241;-52
2021/10/27 08:40:09;;;;;;;16.40;14.80;;;;;;;;;;6075793;29;20238;-59
2021/10/27 08:43:30;;;;;;;16.13;14.17;;;;;;;;;;6071187;29;20213;-57
2021/10/27 08:46:51;;;;;;;17.77;15.97;;;;;;;;;;6065077;29;20229;-52
2021/10/27 08:50:14;;;;;;;17.13;15.43;;;;;;;;;;6073196;29;20233;-56
2021/10/27 08:53:35;;;;;;;18.03;16.27;;;;;;;;;;6071267;29;20567;-54
2021/10/27 08:56:59;;;;;;;18.30;16.37;;;;;;;;;;6068422;29;20244;-54
2021/10/27 09:00:24;;;;;;;16.57;15.07;;;;;;;;;;6055331;29;20237;-53
2021/10/27 09:04:05;;;;;;;17.90;16.00;;;;;;;;;;6065580;29;20214;-55
2021/10/27 09:07:31;;;;;;;18.63;15.10;;;;;;;;;;6068090;29;20225;-53
2021/10/27 09:36:44;;;;;;;14.30;13.00;;;;;;;;;;6070525;29;20624;-52
2021/10/27 10:05:43;;;;;;;15.03;13.63;;;;;;;;;;6053472;29;20556;-52
2021/10/27 10:09:04;;;;;;;15.17;13.67;;;;;;;;;;6065372;29;20226;-55
2021/10/27 10:12:25;;;;;;;17.03;14.77;;;;;;;;;;6068236;29;20222;-50
2021/10/27 10:15:46;;;;;;;15.37;13.53;;;;;;;;;;6065469;29;20249;-54
2021/10/27 10:19:11;;;;;;;14.90;13.60;;;;;;;;;;6068360;29;20253;-55
2021/10/27 10:22:34;;;;;;;16.43;14.80;;;;;;;;;;6067031;29;20217;-54
2021/10/27 10:25:57;;;;;;;15.83;14.00;;;;;;;;;;6070697;29;20237;-53
2021/10/27 10:29:32;;;;;;;15.57;14.07;;;;;;;;;;6060821;29;20241;-56
2021/10/27 10:33:00;;;;;;;16.37;14.93;;;;;;;;;;6054282;29;20301;-56
2021/10/27 10:36:31;;;;;;;16.03;14.40;;;;;;;;;;6056726;29;20221;-53
2021/10/27 10:39:53;;;;;;;13.90;12.70;;;;;;;;;;6063596;29;20683;-52
2021/10/27 10:43:50;;;;;;;15.07;13.63;;;;;;;;;;6058606;29;20797;-57
2021/10/27 10:58:57;;;;;;;41.83;21.00;;;;;;;;;;6060054;29;20533;-51
2021/10/27 11:25:41;;;;;;;12.40;11.37;;;;;;;;;;6052245;29;21457;-55
2021/10/27 11:40:12;;;;;;;12.93;11.73;;;;;;;;;;6076026;29;20236;-56
2021/10/27 11:43:35;;;;;;;12.37;11.20;;;;;;;;;;6068635;29;20232;-52
2021/10/27 11:46:59;;;;;;;11.37;10.37;;;;;;;;;;6062015;29;20233;-54
2021/10/27 11:50:21;;;;;;;12.07;10.90;;;;;;;;;;6079040;29;20228;-52
2021/10/27 11:53:44;;;;;;;14.07;12.63;;;;;;;;;;6079761;29;20197;-51
2021/10/27 11:57:05;;;;;;;12.53;11.40;;;;;;;;;;6074174;29;20252;-52
2021/10/27 12:00:29;;;;;;;11.70;10.60;;;;;;;;;;6076632;29;20241;-54
2021/10/27 12:03:50;;;;;;;11.20;10.20;;;;;;;;;;6075904;29;20233;-56
2021/10/27 12:07:15;;;;;;;13.27;11.67;;;;;;;;;;6070402;29;20232;-55
2021/10/27 12:10:44;;;;;;;14.57;13.10;;;;;;;;;;6066122;29;20555;-51
2021/10/27 12:14:16;;;;;;;22.37;15.47;;;;;;;;;;6074181;29;20204;-54
2021/10/27 12:17:39;;;;;;;12.93;11.60;;;;;;;;;;6076350;29;20229;-55
2021/10/27 12:20:59;;;;;;;11.53;10.33;;;;;;;;;;6072664;29;20233;-52
2021/10/27 12:24:21;;;;;;;17.57;13.00;;;;;;;;;;6069828;29;20225;-53
2021/10/27 12:27:45;;;;;;;12.97;11.77;;;;;;;;;;6071548;29;20216;-56
2021/10/27 12:31:16;;;;;;;12.50;10.60;;;;;;;;;;6070556;29;20624;-52
2021/10/27 12:34:44;;;;;;;12.93;11.70;;;;;;;;;;6068713;29;20222;-52
2021/10/27 12:38:13;;;;;;;13.53;12.17;;;;;;;;;;6075158;29;20268;-50
2021/10/27 12:41:33;;;;;;;13.80;12.03;;;;;;;;;;6075017;29;20233;-48
2021/10/27 12:44:55;;;;;;;13.53;11.60;;;;;;;;;;6071441;29;20304;-52
2021/10/27 12:48:18;;;;;;;23.37;13.97;;;;;;;;;;6072531;29;20300;-54
2021/10/27 12:51:38;;;;;;;17.93;12.97;;;;;;;;;;6073247;29;20273;-53
2021/10/27 12:55:13;;;;;;;38.40;19.87;;;;;;;;;;6070104;29;20242;-52
2021/10/27 12:58:33;;;;;;;12.87;11.67;;;;;;;;;;6069363;29;20205;-54
2021/10/27 13:02:06;;;;;;;14.03;12.63;;;;;;;;;;6067570;29;20229;-53
2021/10/27 13:05:31;;;;;;;26.17;14.80;;;;;;;;;;6064726;29;20241;-54
2021/10/27 13:16:18;;;;;;;14.03;12.60;;;;;;;;;;6067054;29;20320;-50
2021/10/27 13:23:54;;;;;;;19.47;14.13;;;;;;;;;;6047416;29;20213;-56
2021/10/27 13:30:55;;;;;;;19.47;13.20;;;;;;;;;;6074743;29;20233;-56
2021/10/27 13:34:15;;;;;;;12.43;11.43;;;;;;;;;;6073247;29;20575;-54
2021/10/27 13:37:37;;;;;;;13.77;12.37;;;;;;;;;;6066445;29;20961;-53
2021/10/27 13:40:59;;;;;;;22.70;15.27;;;;;;;;;;6067501;29;20841;-55
2021/10/27 13:44:22;;;;;;;33.23;17.47;;;;;;;;;;6059846;29;20233;-54
2021/10/27 13:47:56;;;;;;;104.90;31.17;;;;;;;;;;6055907;29;20197;-55
2021/10/27 13:58:45;;;;;;;60.53;24.60;;;;;;;;;;6048950;29;20209;-55
2021/10/27 14:06:06;;;;;;;11.83;10.70;;;;;;;;;;6041154;29;20320;-55
2021/10/27 14:09:34;;;;;;;27.73;15.20;;;;;;;;;;6050359;29;20210;-51
2021/10/27 14:13:03;;;;;;;15.10;11.70;;;;;;;;;;6067151;29;20240;-52
2021/10/27 14:16:47;;;;;;;20.37;12.50;;;;;;;;;;6058267;29;20540;-55
2021/10/27 15:22:18;;;;;;;7.83;5.30;;;;;;;;;;6066068;29;20220;-49
2021/10/27 15:25:52;;;;;;;12.10;5.40;;;;;;;;;;6062008;29;20226;-56
2021/10/27 15:29:27;;;;;;;9.50;5.17;;;;;;;;;;6067444;29;20217;-53
2021/10/27 15:32:53;;;;;;;11.63;5.93;;;;;;;;;;6071846;29;20229;-52
2021/10/27 15:36:24;;;;;;;6.90;4.23;;;;;;;;;;6071396;29;20666;-53
2021/10/27 15:43:36;;;;;;;8.20;5.03;;;;;;;;;;6074991;29;20190;-56
2021/10/27 15:50:41;;;;;;;6.33;5.37;;;;;;;;;;6070808;29;20233;-52
2021/10/27 15:54:03;;;;;;;6.23;4.43;;;;;;;;;;6075906;29;20225;-58
2021/10/27 15:57:23;;;;;;;6.83;4.67;;;;;;;;;;6075828;29;20654;-57
2021/10/27 16:00:45;;;;;;;10.67;5.80;;;;;;;;;;6070837;29;21472;-58
2021/10/27 16:04:06;;;;;;;5.33;4.80;;;;;;;;;;6072840;29;20226;-58
2021/10/27 16:07:30;;;;;;;5.37;4.63;;;;;;;;;;6064276;29;20222;-57
2021/10/27 16:10:51;;;;;;;10.33;5.40;;;;;;;;;;6075154;29;20889;-57
2021/10/27 16:14:13;;;;;;;7.50;4.77;;;;;;;;;;6075442;29;20213;-54
2021/10/27 16:17:34;;;;;;;7.20;5.60;;;;;;;;;;6075672;29;20229;-54
2021/10/27 16:20:56;;;;;;;5.83;4.00;;;;;;;;;;6069325;29;20285;-53
2021/10/27 16:24:17;;;;;;;6.33;4.53;;;;;;;;;;6074192;29;20608;-54
2021/10/27 16:27:38;;;;;;;5.27;4.27;;;;;;;;;;6070961;29;20770;-54
2021/10/27 16:30:58;;;;;;;5.00;4.17;;;;;;;;;;6065522;29;20233;-52
2021/10/27 16:34:20;;;;;;;10.93;5.10;;;;;;;;;;6064854;29;20282;-52
2021/10/27 16:37:40;;;;;;;7.77;4.73;;;;;;;;;;6062720;29;20256;-52
2021/10/27 16:41:01;;;;;;;5.93;4.63;;;;;;;;;;6068015;29;20237;-55
2021/10/27 16:44:22;;;;;;;9.47;4.60;;;;;;;;;;6062381;29;20525;-55
2021/10/27 16:47:43;;;;;;;6.53;4.17;;;;;;;;;;6068342;29;20233;-53
2021/10/27 16:51:05;;;;;;;9.50;4.50;;;;;;;;;;6070629;29;20273;-54
2021/10/27 16:54:25;;;;;;;5.83;4.10;;;;;;;;;;6075496;29;20205;-53
2021/10/27 16:57:47;;;;;;;11.23;4.60;;;;;;;;;;6070211;29;21298;-54
2021/10/27 17:01:07;;;;;;;4.77;3.83;;;;;;;;;;6072270;29;20608;-54
2021/10/27 17:04:28;;;;;;;5.53;4.00;;;;;;;;;;6072466;29;20577;-54
2021/10/27 17:07:50;;;;;;;5.00;4.10;;;;;;;;;;6070734;29;20217;-53
2021/10/27 17:11:10;;;;;;;6.27;4.33;;;;;;;;;;6063578;29;20261;-53
2021/10/27 17:14:32;;;;;;;7.83;4.63;;;;;;;;;;6055134;29;20198;-52
2021/10/27 17:17:53;;;;;;;6.20;5.27;;;;;;;;;;6063291;29;20205;-53
2021/10/27 17:21:14;;;;;;;5.37;4.87;;;;;;;;;;6069683;29;20241;-54
2021/10/27 17:24:36;;;;;;;7.00;4.93;;;;;;;;;;6062909;29;20221;-57
2021/10/27 17:27:57;;;;;;;5.57;4.30;;;;;;;;;;6065185;29;20308;-56
2021/10/27 17:31:17;;;;;;;7.10;5.13;;;;;;;;;;6062387;29;20240;-52
2021/10/27 17:34:38;;;;;;;4.40;3.77;;;;;;;;;;6072762;29;20361;-54
2021/10/27 17:37:58;;;;;;;6.50;4.30;;;;;;;;;;6067125;29;20225;-54
2021/10/27 17:41:21;;;;;;;5.90;4.13;;;;;;;;;;6070201;29;20237;-55
2021/10/27 17:44:42;;;;;;;9.63;6.53;;;;;;;;;;6078305;29;20248;-54
2021/10/27 17:48:07;;;;;;;8.23;5.20;;;;;;;;;;6065129;29;20584;-52
2021/10/27 17:51:29;;;;;;;7.30;6.00;;;;;;;;;;6071543;29;20560;-53
2021/10/27 17:58:31;;;;;;;5.93;4.30;;;;;;;;;;6073011;29;20197;-56
2021/10/27 18:01:51;;;;;;;10.10;5.87;;;;;;;;;;6060286;29;20230;-56
2021/10/27 18:05:11;;;;;;;6.07;5.17;;;;;;;;;;6072166;29;20249;-56
2021/10/27 18:08:33;;;;;;;5.27;4.70;;;;;;;;;;6075978;29;20196;-54
2021/10/27 18:11:53;;;;;;;5.87;5.27;;;;;;;;;;6060561;29;20260;-56
2021/10/27 18:15:17;;;;;;;5.47;4.97;;;;;;;;;;6071157;29;20355;-57
2021/10/27 18:18:43;;;;;;;8.33;4.97;;;;;;;;;;6069105;29;20230;-56
2021/10/27 18:22:12;;;;;;;8.63;5.47;;;;;;;;;;6064857;29;20465;-55
2021/10/27 18:25:37;;;;;;;7.83;5.23;;;;;;;;;;6058031;29;20232;-54
2021/10/27 18:36:23;;;;;;;8.07;5.23;;;;;;;;;;6072924;29;20228;-56
2021/10/27 18:39:57;;;;;;;6.37;5.27;;;;;;;;;;6069123;29;20229;-58
2021/10/27 18:43:20;;;;;;;7.30;6.07;;;;;;;;;;6068765;29;20209;-57
2021/10/27 18:46:45;;;;;;;6.93;6.07;;;;;;;;;;6067257;29;20276;-58
2021/10/27 18:50:08;;;;;;;6.80;5.20;;;;;;;;;;6067691;29;20256;-57
2021/10/27 18:53:40;;;;;;;11.03;5.90;;;;;;;;;;6058990;29;20213;-55
2021/10/27 18:57:13;;;;;;;6.60;5.30;;;;;;;;;;6065234;29;20221;-57
2021/10/27 19:00:45;;;;;;;5.47;4.80;;;;;;;;;;6061735;29;20221;-56
2021/10/27 19:11:30;;;;;;;7.10;5.03;;;;;;;;;;6073524;29;20347;-55
2021/10/27 19:15:06;;;;;;;6.87;5.60;;;;;;;;;;6077275;29;20615;-55
2021/10/27 19:18:27;;;;;;;6.73;5.33;;;;;;;;;;6070328;29;20242;-62
2021/10/27 19:21:48;;;;;;;8.73;6.43;;;;;;;;;;6067893;29;20234;-61
2021/10/27 19:25:14;;;;;;;7.23;5.73;;;;;;;;;;6053524;29;20237;-60
2021/10/27 19:28:43;;;;;;;6.77;6.17;;;;;;;;;;6066794;29;20224;-63
2021/10/27 19:32:32;;;;;;;6.50;5.10;;;;;;;;;;6075338;29;21360;-66
2021/10/27 20:20:01;;;;;;;8.83;5.40;;;;;;;;;;6080786;29;20252;-64
2021/10/27 20:49:19;;;;;;;9.87;5.80;;;;;;;;;;6065799;29;20464;-63
2021/10/27 20:52:46;;;;;;;7.00;6.03;;;;;;;;;;6061617;29;21317;-61
2021/10/27 20:56:11;;;;;;;7.63;6.13;;;;;;;;;;6057539;29;20240;-63
2021/10/27 20:59:37;;;;;;;6.13;5.53;;;;;;;;;;6064008;29;20225;-63
2021/10/27 21:03:24;;;;;;;10.93;7.00;;;;;;;;;;6068345;29;20213;-63
2021/10/27 21:14:01;;;;;;;8.37;6.50;;;;;;;;;;6075632;29;20928;-63
2021/10/27 21:17:22;;;;;;;10.03;7.67;;;;;;;;;;6061014;29;20222;-61
2021/10/27 21:20:43;;;;;;;9.77;7.70;;;;;;;;;;6058007;29;20241;-63
2021/10/27 21:24:05;;;;;;;13.70;7.20;;;;;;;;;;6061265;29;20197;-63
2021/10/27 21:27:31;;;;;;;6.60;6.00;;;;;;;;;;6047072;29;20228;-62
2021/10/27 21:31:04;;;;;;;6.83;6.13;;;;;;;;;;6067271;29;20236;-61
2021/10/27 21:45:20;;;;;;;10.63;7.33;;;;;;;;;;6066705;29;20236;-61
2021/10/27 21:48:42;;;;;;;9.07;7.37;;;;;;;;;;6062396;29;20619;-61
2021/10/27 21:52:04;;;;;;;10.33;8.67;;;;;;;;;;6070239;29;22398;-61
2021/10/27 21:55:26;;;;;;;10.00;9.00;;;;;;;;;;6066256;29;20253;-62
2021/10/27 21:58:46;;;;;;;9.10;8.30;;;;;;;;;;6065328;29;20212;-61
2021/10/27 22:02:07;;;;;;;10.43;8.47;;;;;;;;;;6070951;29;20233;-62
2021/10/27 22:05:29;;;;;;;10.50;9.40;;;;;;;;;;6068829;29;20229;-61
2021/10/27 22:08:49;;;;;;;11.93;9.80;;;;;;;;;;6064988;29;20197;-61
2021/10/27 22:12:10;;;;;;;11.80;9.40;;;;;;;;;;6074596;29;20308;-63
2021/10/27 22:15:31;;;;;;;10.93;9.80;;;;;;;;;;6075583;29;20233;-62
2021/10/27 22:18:51;;;;;;;11.13;10.07;;;;;;;;;;6072487;29;20206;-62
2021/10/27 22:22:14;;;;;;;11.93;10.63;;;;;;;;;;6080164;29;20233;-61
2021/10/27 22:25:35;;;;;;;12.63;11.30;;;;;;;;;;6078259;29;20503;-61
2021/10/27 22:28:55;;;;;;;14.50;10.33;;;;;;;;;;6076797;29;20696;-62
2021/10/27 22:32:16;;;;;;;13.07;11.40;;;;;;;;;;6074607;29;20791;-62
2021/10/27 22:35:36;;;;;;;12.20;11.07;;;;;;;;;;6081879;29;20611;-62
2021/10/27 22:38:58;;;;;;;10.67;9.67;;;;;;;;;;6074796;29;20507;-62
2021/10/27 22:42:19;;;;;;;13.47;12.03;;;;;;;;;;6052744;29;20324;-61
2021/10/27 22:45:40;;;;;;;11.00;9.90;;;;;;;;;;6072877;29;20634;-62
2021/10/27 22:49:01;;;;;;;11.73;10.53;;;;;;;;;;6070368;29;20520;-61
2021/10/27 22:52:22;;;;;;;12.03;10.77;;;;;;;;;;6060155;29;20225;-62
2021/10/27 22:55:44;;;;;;;13.17;10.97;;;;;;;;;;6075932;29;20673;-60
2021/10/27 22:59:07;;;;;;;12.33;11.07;;;;;;;;;;6081891;29;20198;-62
2021/10/27 23:02:31;;;;;;;13.57;11.57;;;;;;;;;;6064097;29;20229;-63
2021/10/27 23:05:59;;;;;;;12.80;10.83;;;;;;;;;;6070962;29;20233;-62
2021/10/27 23:09:31;;;;;;;12.83;11.53;;;;;;;;;;6075092;29;20209;-61
2021/10/27 23:13:10;;;;;;;13.20;12.00;;;;;;;;;;6079500;29;20205;-63
2021/10/27 23:42:09;;;;;;;19.37;13.30;;;;;;;;;;6077573;29;20229;-62
2021/10/27 23:45:30;;;;;;;15.10;12.23;;;;;;;;;;6076403;29;20257;-61
2021/10/27 23:48:52;;;;;;;14.60;13.10;;;;;;;;;;6078115;29;20201;-61
2021/10/27 23:52:17;;;;;;;15.17;13.67;;;;;;;;;;6082896;29;20660;-61
2021/10/27 23:55:42;;;;;;;13.93;12.47;;;;;;;;;;6072899;29;20233;-61
